Time,TemperatureF,DewpointF,PressureIn,WindDirection,WindDirectionDegrees,WindSpeedMPH,WindSpeedGustMPH,Humidity,HourlyPrecipIn,Conditions,Clouds,dailyrainin,SoftwareType,DateUTC
2013-09-16 00:14:00,55.0,49.0,30.06,SE,135,0.0,0.0,81,0.00,,,0.00,,2013-09-16 04:14:00,
2013-09-16 00:24:00,55.0,49.0,30.06,SE,135,0.0,0.0,81,0.00,,,0.00,,2013-09-16 04:24:00,
2013-09-16 00:54:00,55.0,50.0,30.06,SE,135,0.0,0.0,82,0.00,,,0.00,,2013-09-16 04:54:00,
2013-09-16 01:22:00,55.0,50.0,30.06,SE,135,0.0,0.0,83,0.00,,,0.00,,2013-09-16 05:22:00,
2013-09-16 01:53:00,56.0,51.0,30.04,SE,135,0.0,0.0,83,0.00,,,0.00,,2013-09-16 05:53:00,
2013-09-16 02:22:00,56.0,51.0,30.03,SE,135,0.0,0.0,84,0.00,,,0.00,,2013-09-16 06:22:00,
2013-09-16 02:52:00,56.0,52.0,30.03,SSE,158,0.0,0.0,85,0.00,,,0.00,,2013-09-16 06:52:00,
2013-09-16 03:22:00,57.0,53.0,30.03,SSE,158,0.0,0.0,85,0.00,,,0.00,,2013-09-16 07:22:00,
2013-09-16 03:52:00,57.0,53.0,30.03,SSE,158,0.0,0.0,86,0.00,,,0.00,,2013-09-16 07:52:00,
2013-09-16 04:22:00,56.0,52.0,30.03,SSE,158,0.0,0.0,86,0.00,,,0.00,,2013-09-16 08:22:00,
2013-09-16 04:52:00,56.0,52.0,30.03,SSE,158,0.0,0.0,87,0.00,,,0.00,,2013-09-16 08:52:00,
2013-09-16 05:22:00,56.0,52.0,30.03,SSE,158,0.0,0.0,87,0.00,,,0.00,,2013-09-16 09:22:00,
2013-09-16 05:53:00,55.0,51.0,30.03,SSE,158,0.0,0.0,87,0.00,,,0.00,,2013-09-16 09:53:00,
2013-09-16 06:23:00,55.0,51.0,30.02,WSW,248,0.0,0.0,87,0.00,,,0.00,,2013-09-16 10:23:00,
2013-09-16 06:53:00,55.0,52.0,30.03,WSW,248,0.0,0.0,88,0.00,,,0.00,,2013-09-16 10:53:00,
2013-09-16 07:22:00,56.0,52.0,30.03,WSW,248,0.0,0.0,88,0.00,,,0.00,,2013-09-16 11:22:00,
2013-09-16 07:52:00,56.0,52.0,30.03,WSW,248,0.0,0.0,88,0.00,,,0.00,,2013-09-16 11:52:00,
2013-09-16 08:22:00,56.0,52.0,30.04,WSW,248,0.0,0.0,88,0.00,,,0.00,,2013-09-16 12:22:00,
2013-09-16 08:52:00,56.0,52.0,30.06,WSW,248,0.0,0.0,88,0.00,,,0.00,,2013-09-16 12:52:00,
2013-09-16 09:22:00,55.0,52.0,30.05,WSW,248,0.0,0.0,88,0.00,,,0.00,,2013-09-16 13:22:00,
2013-09-16 09:52:00,55.0,52.0,30.06,WSW,248,0.0,0.0,89,0.00,,,0.00,,2013-09-16 13:52:00,
2013-09-16 10:22:00,56.0,53.0,30.06,WSW,248,0.0,0.0,89,0.00,,,0.00,,2013-09-16 14:22:00,
2013-09-16 10:52:00,56.0,53.0,30.06,WSW,248,0.0,0.0,90,0.00,,,0.00,,2013-09-16 14:52:00,
2013-09-16 11:22:00,57.0,54.0,30.06,WSW,248,0.0,0.0,90,0.00,,,0.00,,2013-09-16 15:22:00,
2013-09-16 11:53:00,57.0,54.0,30.06,WSW,248,0.0,0.0,90,0.00,,,0.00,,2013-09-16 15:53:00,
2013-09-16 12:23:00,57.0,54.0,30.05,WSW,248,0.0,0.0,90,0.00,,,0.00,,2013-09-16 16:23:00,
2013-09-16 12:52:00,58.0,55.0,30.03,WSW,248,0.0,0.0,89,0.00,,,0.00,,2013-09-16 16:52:00,
2013-09-16 13:23:00,60.0,56.0,30.04,WSW,248,0.0,0.0,88,0.00,,,0.00,,2013-09-16 17:23:00,
2013-09-16 13:53:00,64.0,60.0,30.03,West,270,0.0,0.0,87,0.00,,,0.00,,2013-09-16 17:53:00,
2013-09-16 14:52:00,64.0,58.0,30.04,NE,45,0.0,0.0,80,0.00,,,0.00,,2013-09-16 18:52:00,
2013-09-16 15:22:00,65.0,58.0,30.03,WSW,248,0.0,0.0,78,0.00,,,0.00,,2013-09-16 19:22:00,
2013-09-16 15:53:00,66.0,57.0,30.02,NE,45,0.0,0.0,74,0.00,,,0.00,,2013-09-16 19:53:00,
2013-09-16 16:22:00,64.0,56.0,30.02,ENE,68,0.0,0.0,74,0.00,,,0.00,,2013-09-16 20:22:00,
2013-09-16 16:52:00,64.0,56.0,30.03,NE,45,0.0,0.0,76,0.00,,,0.00,,2013-09-16 20:52:00,
2013-09-16 17:22:00,64.0,56.0,30.03,NNE,23,0.0,0.0,74,0.00,,,0.00,,2013-09-16 21:22:00,
2013-09-16 17:55:00,64.0,56.0,30.03,NNE,23,0.0,0.0,76,0.00,,,0.00,,2013-09-16 21:55:00,
2013-09-16 18:24:00,63.0,55.0,30.05,NNE,23,0.0,0.0,76,0.00,,,0.00,,2013-09-16 22:24:00,
2013-09-16 18:53:00,61.0,54.0,30.06,NE,45,0.0,0.0,78,0.00,,,0.00,,2013-09-16 22:53:00,
2013-09-16 19:22:00,60.0,53.0,30.06,NE,45,0.0,0.0,79,0.00,,,0.00,,2013-09-16 23:22:00,
2013-09-16 19:52:00,59.0,52.0,30.07,NE,45,0.0,0.0,79,0.00,,,0.00,,2013-09-16 23:52:00,
2013-09-16 20:22:00,58.0,52.0,30.09,NE,45,0.0,0.0,79,0.00,,,0.00,,2013-09-17 00:22:00,
2013-09-16 20:52:00,57.0,51.0,30.11,NNE,23,0.0,0.0,80,0.00,,,0.00,,2013-09-17 00:52:00,
2013-09-16 21:21:00,56.0,50.0,30.12,NNW,338,0.0,0.0,81,0.00,,,0.00,,2013-09-17 01:21:00,
2013-09-16 21:52:00,55.0,49.0,30.15,NNE,23,0.0,1.0,81,0.00,,,0.00,,2013-09-17 01:52:00,
2013-09-16 22:22:00,53.0,47.0,30.16,NE,45,4.0,5.0,79,0.00,,,0.00,,2013-09-17 02:22:00,
2013-09-16 22:42:00,52.0,44.0,30.17,NE,45,3.0,7.0,75,0.00,,,0.00,,2013-09-17 02:42:00,
2013-09-16 22:52:00,52.0,44.0,30.18,ENE,68,5.0,9.0,74,0.00,,,0.00,,2013-09-17 02:52:00,
2013-09-16 23:23:00,50.0,42.0,30.19,NNE,23,1.0,1.0,73,0.00,,,0.00,,2013-09-17 03:23:00,
2013-09-16 23:54:00,49.0,41.0,30.21,NNE,23,0.0,0.0,74,0.00,,,0.00,,2013-09-17 03:54:00,